Time;durP1;ratioP1;P1;durP2;ratioP2;P2;SDS_P1;SDS_P2;PMS_P1;PMS_P2;Temp;Humidity;BMP_temperature;BMP_pressure;BME280_temperature;BME280_humidity;BME280_pressure;Samples;Min_cycle;Max_cycle;Signal;HPM_P1;HPM_P2
2023/01/02 00:00:29;;;;;;;8.77;3.63;;;9.10;99.90;;;;;;5161425;27;20067;-63
2023/01/02 00:02:55;;;;;;;9.00;3.20;;;9.20;99.90;;;;;;5161906;27;20410;-62
2023/01/02 00:05:21;;;;;;;9.68;3.70;;;9.40;99.90;;;;;;5142663;27;20046;-64
2023/01/02 00:07:47;;;;;;;9.65;2.85;;;9.20;99.90;;;;;;5143387;27;20064;-64
2023/01/02 00:10:12;;;;;;;10.68;3.70;;;9.20;99.90;;;;;;5161190;27;20042;-63
2023/01/02 00:12:38;;;;;;;9.27;3.47;;;9.20;99.90;;;;;;5161405;27;20110;-63
2023/01/02 00:15:04;;;;;;;9.93;3.45;;;9.30;99.90;;;;;;5142996;27;20079;-63
2023/01/02 00:17:30;;;;;;;12.07;4.20;;;9.40;99.90;;;;;;5161162;27;20042;-64
2023/01/02 00:19:56;;;;;;;8.90;4.10;;;9.20;99.90;;;;;;5143118;27;20057;-63
2023/01/02 00:22:22;;;;;;;9.43;3.90;;;9.20;99.90;;;;;;5160891;27;20079;-63
2023/01/02 00:24:47;;;;;;;12.32;4.65;;;9.50;99.90;;;;;;5161810;27;20470;-62
2023/01/02 00:27:14;;;;;;;11.32;4.10;;;9.40;99.90;;;;;;5160560;27;20043;-62
2023/01/02 00:29:39;;;;;;;11.88;4.93;;;9.20;99.90;;;;;;5161414;27;20050;-61
2023/01/02 00:32:05;;;;;;;11.80;4.75;;;9.40;99.90;;;;;;5161090;27;20398;-61
2023/01/02 00:34:31;;;;;;;11.35;4.60;;;9.20;99.90;;;;;;5160852;27;20042;-61
2023/01/02 00:36:57;;;;;;;10.82;4.47;;;9.50;99.90;;;;;;5161500;27;20486;-61
2023/01/02 00:39:22;;;;;;;9.65;4.15;;;9.20;99.90;;;;;;5160596;27;20038;-62
2023/01/02 00:41:48;;;;;;;8.27;4.05;;;9.40;99.90;;;;;;5160941;27;20074;-61
2023/01/02 00:44:14;;;;;;;10.00;3.97;;;9.20;99.90;;;;;;5160458;27;20039;-59
2023/01/02 00:46:39;;;;;;;10.35;4.75;;;9.30;99.90;;;;;;5161281;27;20043;-60
2023/01/02 00:49:05;;;;;;;9.27;4.55;;;9.50;99.90;;;;;;5160645;27;20074;-60
2023/01/02 00:51:31;;;;;;;10.07;4.70;;;9.50;99.90;;;;;;5141947;27;20045;-60
2023/01/02 00:53:56;;;;;;;10.57;5.15;;;9.40;99.90;;;;;;5160980;27;20042;-60
2023/01/02 00:56:22;;;;;;;9.32;4.75;;;9.60;99.90;;;;;;5140350;27;20050;-60
2023/01/02 00:58:48;;;;;;;9.23;4.97;;;9.30;99.90;;;;;;5140288;27;20035;-61
2023/01/02 01:01:13;;;;;;;10.60;5.40;;;9.60;99.90;;;;;;5139426;27;20557;-60
2023/01/02 01:03:42;;;;;;;10.93;5.45;;;9.70;99.90;;;;;;5139532;27;20123;-59
2023/01/02 01:06:09;;;;;;;11.65;5.70;;;9.40;99.90;;;;;;5139447;27;20042;-58
2023/01/02 01:08:36;;;;;;;10.15;5.55;;;9.50;99.90;;;;;;5139723;27;20031;-59
2023/01/02 01:11:10;;;;;;;9.82;5.68;;;9.40;99.90;;;;;;5139847;27;20048;-59
2023/01/02 01:13:36;;;;;;;10.43;5.80;;;9.70;99.90;;;;;;5138903;27;20047;-59
2023/01/02 01:16:11;;;;;;;11.50;6.13;;;9.70;99.90;;;;;;5139956;27;20043;-58
2023/01/02 01:18:37;;;;;;;11.52;6.13;;;9.70;99.90;;;;;;5139175;27;20043;-59
2023/01/02 01:21:07;;;;;;;14.05;7.32;;;9.80;99.90;;;;;;5139717;27;20048;-59
2023/01/02 01:23:33;;;;;;;11.45;7.05;;;9.70;99.90;;;;;;5139391;27;20377;-59
2023/01/02 01:26:06;;;;;;;15.15;7.03;;;9.70;99.90;;;;;;5139079;27;20042;-58
2023/01/02 01:28:32;;;;;;;9.98;5.80;;;9.80;99.90;;;;;;5139552;27;20031;-58
2023/01/02 01:31:03;;;;;;;9.88;5.57;;;9.60;99.90;;;;;;5138706;27;20050;-59
2023/01/02 01:33:31;;;;;;;10.80;6.32;;;9.90;99.90;;;;;;5139325;27;20070;-59
2023/01/02 01:36:04;;;;;;;12.60;5.95;;;9.60;99.90;;;;;;5120138;27;20133;-58
2023/01/02 01:38:31;;;;;;;11.65;6.03;;;10.00;99.90;;;;;;5139058;27;20039;-59
2023/01/02 01:40:57;;;;;;;11.45;5.82;;;9.60;99.90;;;;;;5139553;27;20125;-58
2023/01/02 01:43:44;;;;;;;11.20;6.70;;;9.70;99.90;;;;;;5138365;27;20495;-59
2023/01/02 01:46:19;;;;;;;41.67;7.63;;;10.10;99.90;;;;;;5139480;27;20065;-59
2023/01/02 01:48:48;;;;;;;9.65;6.25;;;9.80;99.90;;;;;;5138679;27;20075;-58
2023/01/02 01:51:15;;;;;;;11.30;6.47;;;10.10;99.90;;;;;;5139328;27;20035;-58
2023/01/02 01:53:44;;;;;;;10.70;6.40;;;9.90;99.90;;;;;;5139113;27;20039;-59
2023/01/02 01:56:11;;;;;;;11.23;6.90;;;9.80;99.90;;;;;;5156096;27;20099;-58
2023/01/02 01:58:42;;;;;;;12.13;7.15;;;9.90;99.90;;;;;;5159862;27;20047;-60
2023/01/02 02:01:12;;;;;;;11.15;7.47;;;10.10;99.90;;;;;;5140425;27;20053;-58
2023/01/02 02:03:41;;;;;;;13.57;7.13;;;9.80;99.90;;;;;;5159784;27;20050;-59
2023/01/02 02:06:08;;;;;;;12.30;7.15;;;9.70;99.90;;;;;;5159525;27;20050;-60
2023/01/02 02:08:40;;;;;;;14.95;8.13;;;10.30;99.90;;;;;;5140739;27;20043;-59
2023/01/02 02:11:06;;;;;;;13.85;8.18;;;9.70;99.90;;;;;;5159925;27;20043;-60
2023/01/02 02:13:33;;;;;;;11.95;7.63;;;10.30;99.90;;;;;;5158451;27;20079;-60
2023/01/02 02:16:17;;;;;;;10.88;7.05;;;10.30;99.90;;;;;;5163373;27;20863;-61
2023/01/02 02:18:51;;;;;;;13.60;7.60;;;9.80;99.90;;;;;;5163246;27;20045;-60
2023/01/02 02:21:30;;;;;;;13.02;8.18;;;10.20;99.90;;;;;;5163749;27;20046;-62
2023/01/02 02:24:52;;;;;;;13.00;7.88;;;10.20;99.90;;;;;;5163786;27;20526;-61
2023/01/02 02:27:44;;;;;;;12.57;7.38;;;9.80;99.90;;;;;;5058615;28;20056;-61
2023/01/02 02:30:22;;;;;;;11.82;7.75;;;9.80;99.90;;;;;;5058475;28;20134;-61
2023/01/02 02:32:56;;;;;;;18.88;10.27;;;10.20;99.90;;;;;;5147808;27;20060;-60
2023/01/02 02:36:02;;;;;;;10.75;7.80;;;10.30;99.90;;;;;;5144247;27;20600;-60
2023/01/02 02:38:28;;;;;;;13.52;9.50;;;10.00;99.90;;;;;;5109239;27;20058;-59
2023/01/02 02:41:03;;;;;;;13.35;9.20;;;10.50;99.90;;;;;;5163641;27;20043;-59
2023/01/02 02:43:29;;;;;;;13.30;9.43;;;10.40;99.90;;;;;;5126671;27;20046;-59
2023/01/02 02:46:00;;;;;;;13.45;9.90;;;10.40;99.90;;;;;;5163723;27;20137;-59
2023/01/02 02:49:06;;;;;;;16.05;10.52;;;9.80;99.90;;;;;;5162739;27;20042;-58
2023/01/02 02:51:42;;;;;;;16.60;11.23;;;10.30;99.90;;;;;;5144626;27;20058;-59
2023/01/02 02:54:12;;;;;;;16.80;11.10;;;10.50;99.90;;;;;;5127246;27;20502;-59
2023/01/02 02:56:40;;;;;;;19.33;12.25;;;10.50;99.90;;;;;;5141790;27;20067;-58
2023/01/02 02:59:06;;;;;;;17.02;12.20;;;9.90;99.90;;;;;;5142536;27;20153;-59
2023/01/02 03:01:32;;;;;;;17.70;11.95;;;10.00;99.90;;;;;;5141624;27;20218;-58
2023/01/02 03:03:58;;;;;;;18.40;12.38;;;10.50;99.90;;;;;;5142335;27;20519;-59
2023/01/02 03:06:51;;;;;;;20.80;13.48;;;10.00;99.90;;;;;;5142223;27;20042;-58
2023/01/02 03:10:00;;;;;;;19.02;12.13;;;10.60;99.90;;;;;;5141581;27;20043;-59
2023/01/02 03:12:52;;;;;;;22.80;14.13;;;10.60;99.90;;;;;;5130298;27;20055;-58
2023/01/02 03:15:27;;;;;;;18.57;13.20;;;10.10;99.90;;;;;;5084815;27;20059;-58
2023/01/02 03:18:15;;;;;;;19.75;12.52;;;10.00;99.90;;;;;;5122932;27;20047;-58
2023/01/02 03:20:47;;;;;;;18.02;12.10;;;10.20;99.90;;;;;;5142123;27;20047;-58
2023/01/02 03:23:19;;;;;;;20.38;11.68;;;10.80;99.90;;;;;;5141729;27;20039;-58
2023/01/02 03:25:46;;;;;;;;;;;10.80;99.90;;;;;;5142037;27;20081;-58
2023/01/02 03:28:16;;;;;;;18.55;11.98;;;10.50;99.90;;;;;;5141599;27;19982;-58
2023/01/02 03:30:44;;;;;;;19.23;12.07;;;10.80;99.90;;;;;;5141011;27;20051;-58
2023/01/02 03:33:17;;;;;;;18.20;11.57;;;10.00;99.90;;;;;;5142043;27;20099;-59
2023/01/02 03:35:50;;;;;;;19.05;11.43;;;10.50;99.90;;;;;;5141170;27;20035;-58
2023/01/02 03:38:24;;;;;;;18.80;10.68;;;10.10;99.90;;;;;;5141698;27;20051;-58
2023/01/02 03:41:21;;;;;;;19.05;11.40;;;10.40;99.90;;;;;;5141698;27;20093;-58
2023/01/02 03:43:49;;;;;;;19.60;11.82;;;10.10;99.90;;;;;;5135666;27;20047;-58
2023/01/02 03:46:31;;;;;;;17.95;11.50;;;10.10;99.90;;;;;;5141943;27;20583;-58
2023/01/02 03:49:21;;;;;;;18.80;11.73;;;10.60;99.90;;;;;;5141123;27;20079;-58
2023/01/02 03:51:47;;;;;;;18.77;12.50;;;10.40;99.90;;;;;;5122429;27;20304;-58
2023/01/02 03:54:14;;;;;;;21.33;13.30;;;10.50;99.90;;;;;;5142343;27;20043;-58
2023/01/02 03:56:58;;;;;;;18.58;11.90;;;10.90;99.90;;;;;;5161431;27;20043;-58
2023/01/02 03:59:56;;;;;;;17.83;11.70;;;10.80;99.90;;;;;;5162132;27;20038;-58
2023/01/02 04:02:36;;;;;;;21.10;13.05;;;10.40;99.90;;;;;;5162297;27;20053;-58
2023/01/02 04:05:21;;;;;;;20.23;13.32;;;10.40;99.90;;;;;;5161230;27;20096;-58
2023/01/02 04:08:02;;;;;;;22.05;13.70;;;11.00;99.90;;;;;;5161951;27;20107;-58
2023/01/02 04:10:29;;;;;;;28.92;14.00;;;10.30;99.90;;;;;;5142625;27;20121;-57
2023/01/02 04:13:00;;;;;;;23.38;15.13;;;10.40;99.90;;;;;;5161258;27;20030;-58
2023/01/02 04:15:28;;;;;;;25.40;13.68;;;10.90;99.90;;;;;;5161886;27;20045;-58
2023/01/02 04:18:04;;;;;;;23.20;14.18;;;10.50;99.90;;;;;;5161290;27;20035;-58
2023/01/02 04:20:33;;;;;;;25.95;15.68;;;10.40;99.90;;;;;;5161360;27;20046;-58
2023/01/02 04:23:09;;;;;;;24.88;15.45;;;10.90;99.90;;;;;;5161009;27;20078;-58
2023/01/02 04:25:48;;;;;;;26.45;15.90;;;10.60;99.90;;;;;;5161400;27;20043;-58
2023/01/02 04:28:29;;;;;;;27.58;15.80;;;11.00;99.90;;;;;;5161822;27;20049;-59
2023/01/02 04:31:17;;;;;;;25.92;15.68;;;11.30;99.90;;;;;;5160687;27;20039;-58
2023/01/02 04:33:48;;;;;;;24.50;15.02;;;11.10;99.90;;;;;;5161544;27;20054;-58
2023/01/02 04:36:15;;;;;;;28.10;17.05;;;10.70;99.90;;;;;;5161072;27;20037;-58
2023/01/02 04:38:41;;;;;;;30.95;17.10;;;10.40;99.90;;;;;;5159961;27;20101;-59
2023/01/02 04:41:08;;;;;;;34.40;16.35;;;10.70;99.90;;;;;;5161214;27;20588;-59
2023/01/02 04:43:34;;;;;;;29.38;15.80;;;10.80;99.90;;;;;;5141500;27;20034;-60
2023/01/02 04:46:00;;;;;;;27.73;15.65;;;10.20;99.90;;;;;;5161234;27;20042;-59
2023/01/02 04:48:25;;;;;;;26.58;14.90;;;10.90;99.90;;;;;;5160467;27;20074;-60
2023/01/02 04:50:53;;;;;;;26.40;15.45;;;11.00;99.90;;;;;;5161211;27;20046;-59
2023/01/02 04:53:19;;;;;;;27.35;15.38;;;10.40;99.90;;;;;;5160780;27;20070;-59
2023/01/02 04:55:45;;;;;;;29.63;16.50;;;10.20;99.90;;;;;;5137842;27;20059;-60
2023/01/02 04:58:10;;;;;;;28.85;15.85;;;10.70;99.90;;;;;;5139988;27;20059;-61
2023/01/02 05:00:36;;;;;;;30.15;17.08;;;10.90;99.90;;;;;;5139157;27;20124;-60
2023/01/02 05:03:03;;;;;;;31.35;17.35;;;10.40;99.90;;;;;;5140104;27;20181;-61
2023/01/02 05:05:29;;;;;;;26.65;16.30;;;10.90;99.90;;;;;;5139497;27;20105;-61
2023/01/02 05:07:57;;;;;;;31.33;17.65;;;10.80;99.90;;;;;;5140060;27;20043;-61
2023/01/02 05:10:22;;;;;;;27.55;16.85;;;11.00;99.90;;;;;;5139433;27;20058;-61
2023/01/02 05:12:48;;;;;;;30.77;17.50;;;10.80;99.90;;;;;;5139114;27;20051;-62
2023/01/02 05:15:14;;;;;;;26.13;16.73;;;10.90;99.90;;;;;;5139865;27;20043;-60
2023/01/02 05:17:41;;;;;;;27.77;16.80;;;10.60;99.90;;;;;;5139108;27;20398;-61
2023/01/02 05:20:09;;;;;;;30.90;17.00;;;10.40;99.90;;;;;;5139417;27;20055;-61
2023/01/02 05:25:25;;;;;;;29.17;15.75;;;10.40;99.90;;;;;;5139424;27;20071;-61
2023/01/02 05:27:54;;;;;;;25.60;14.75;;;10.30;99.90;;;;;;5121346;27;20103;-61
2023/01/02 05:30:21;;;;;;;28.33;16.10;;;10.60;99.90;;;;;;5138783;27;20094;-61
2023/01/02 05:32:46;;;;;;;24.98;14.63;;;11.10;99.90;;;;;;5139432;27;20051;-62
2023/01/02 05:35:12;;;;;;;21.95;14.80;;;10.20;99.90;;;;;;5138906;27;20094;-61
2023/01/02 05:37:38;;;;;;;21.90;13.70;;;10.30;99.90;;;;;;5139421;27;20035;-61
2023/01/02 05:40:04;;;;;;;22.33;13.27;;;10.80;99.90;;;;;;5138866;27;20043;-61
2023/01/02 05:42:30;;;;;;;25.92;13.73;;;10.30;99.90;;;;;;5139194;27;20058;-58
2023/01/02 05:44:55;;;;;;;21.52;13.63;;;10.80;99.90;;;;;;5139327;27;20065;-60
2023/01/02 05:47:21;;;;;;;19.58;11.90;;;11.20;99.90;;;;;;5138760;27;20046;-59
2023/01/02 05:49:47;;;;;;;19.15;12.32;;;11.10;99.90;;;;;;5139391;27;20043;-59
2023/01/02 05:52:13;;;;;;;18.73;11.10;;;10.20;99.90;;;;;;5138504;27;20483;-59
2023/01/02 05:54:38;;;;;;;17.73;11.38;;;10.60;99.90;;;;;;5125169;27;20486;-59
2023/01/02 05:57:04;;;;;;;16.13;10.85;;;10.20;99.90;;;;;;5159325;27;20051;-59
2023/01/02 05:59:29;;;;;;;17.30;11.27;;;11.20;99.90;;;;;;5159981;27;20039;-59
2023/01/02 06:01:55;;;;;;;16.80;10.95;;;10.70;99.90;;;;;;5159571;27;20047;-58
2023/01/02 06:04:21;;;;;;;17.00;10.70;;;10.60;99.90;;;;;;5159424;27;20098;-58
2023/01/02 06:06:46;;;;;;;15.70;10.43;;;10.40;99.90;;;;;;5159808;27;20049;-60
2023/01/02 06:09:13;;;;;;;14.85;9.48;;;10.50;99.90;;;;;;5159107;27;20059;-59
2023/01/02 06:11:39;;;;;;;16.63;10.60;;;11.20;99.90;;;;;;5159880;27;20043;-59
2023/01/02 06:14:05;;;;;;;16.25;10.05;;;10.40;99.90;;;;;;5158840;27;20045;-59
2023/01/02 06:16:31;;;;;;;15.60;10.23;;;11.20;99.90;;;;;;5159846;27;20039;-60
2023/01/02 06:18:56;;;;;;;14.95;9.75;;;11.00;99.90;;;;;;5140614;27;20035;-60
2023/01/02 06:21:22;;;;;;;16.45;10.95;;;11.00;99.90;;;;;;5159235;27;20030;-60
2023/01/02 06:23:53;;;;;;;16.50;11.40;;;10.20;99.90;;;;;;5159914;27;20039;-60
2023/01/02 06:26:19;;;;;;;16.10;10.60;;;10.20;99.90;;;;;;5158994;27;20139;-60
2023/01/02 06:28:48;;;;;;;16.92;10.75;;;10.40;99.90;;;;;;5159677;27;20043;-61
2023/01/02 06:31:16;;;;;;;17.58;11.48;;;10.30;99.90;;;;;;5158591;27;20059;-61
2023/01/02 06:33:42;;;;;;;16.88;11.20;;;10.20;99.90;;;;;;5159396;27;20077;-60
2023/01/02 06:36:12;;;;;;;16.23;11.05;;;10.90;99.90;;;;;;5159231;27;20042;-62
2023/01/02 06:38:38;;;;;;;16.80;11.27;;;10.20;99.90;;;;;;5156289;27;20157;-59
2023/01/02 06:41:05;;;;;;;16.05;11.05;;;10.40;99.90;;;;;;5156519;27;20183;-59
2023/01/02 06:43:32;;;;;;;16.23;11.32;;;10.10;99.90;;;;;;5155195;27;20031;-60
2023/01/02 06:45:59;;;;;;;19.30;11.98;;;10.20;99.90;;;;;;5156241;27;20042;-59
2023/01/02 06:48:25;;;;;;;16.92;11.50;;;10.80;99.90;;;;;;5155339;27;20704;-58
2023/01/02 06:50:51;;;;;;;18.38;9.02;;;10.70;99.90;;;;;;5155930;27;20047;-58
2023/01/02 06:53:17;;;;;;;16.83;8.23;;;9.70;99.90;;;;;;5155887;27;20573;-58
2023/01/02 06:55:56;;;;;;;15.43;7.03;;;9.90;99.90;;;;;;5141657;27;20112;-64
2023/01/02 06:58:22;;;;;;;13.35;6.25;;;9.40;99.90;;;;;;5083791;28;20039;-66
2023/01/02 07:00:48;;;;;;;13.30;4.78;;;9.20;99.90;;;;;;5134215;27;20054;-65
2023/01/02 07:03:15;;;;;;;12.40;4.07;;;8.70;99.90;;;;;;5120256;27;20047;-65
2023/01/02 07:05:41;;;;;;;5.80;2.30;;;9.40;99.90;;;;;;5138362;27;20114;-66
2023/01/02 07:08:07;;;;;;;6.43;1.98;;;8.30;99.90;;;;;;5120273;27;20078;-63
2023/01/02 07:10:33;;;;;;;3.33;1.00;;;8.90;99.90;;;;;;5138943;27;20073;-62
2023/01/02 07:12:59;;;;;;;3.80;0.90;;;8.10;99.90;;;;;;5138193;27;20460;-63
2023/01/02 07:15:25;;;;;;;2.65;0.80;;;8.00;99.90;;;;;;5103195;27;20112;-62
2023/01/02 07:17:51;;;;;;;2.15;0.82;;;8.60;99.90;;;;;;5119369;27;20530;-62
2023/01/02 07:20:17;;;;;;;5.18;1.20;;;7.80;99.90;;;;;;5138659;27;20170;-61
2023/01/02 07:22:50;;;;;;;3.17;0.85;;;8.50;99.90;;;;;;5137858;27;20062;-60
2023/01/02 07:25:15;;;;;;;3.30;0.80;;;8.40;99.90;;;;;;5138696;27;20054;-60
2023/01/02 07:27:41;;;;;;;4.35;1.10;;;8.50;99.90;;;;;;5138120;27;20043;-59
2023/01/02 07:30:07;;;;;;;3.72;1.00;;;7.80;99.90;;;;;;5137642;27;20039;-59
2023/01/02 07:32:33;;;;;;;3.13;0.80;;;7.50;99.90;;;;;;5138627;27;20058;-60
2023/01/02 07:34:59;;;;;;;3.35;1.10;;;8.10;99.90;;;;;;5150332;27;20034;-59
2023/01/02 07:37:24;;;;;;;3.80;0.77;;;7.70;99.90;;;;;;5159275;27;20802;-59
2023/01/02 07:39:50;;;;;;;2.88;0.80;;;7.50;99.90;;;;;;5158129;27;20145;-59
2023/01/02 07:42:16;;;;;;;3.08;0.88;;;8.30;99.90;;;;;;5159013;27;20459;-60
2023/01/02 07:44:41;;;;;;;4.50;1.20;;;7.40;99.90;;;;;;5157808;27;20081;-58
2023/01/02 07:47:07;;;;;;;3.42;1.05;;;8.00;99.90;;;;;;5158573;27;20050;-59
2023/01/02 07:49:33;;;;;;;5.13;1.10;;;7.50;99.90;;;;;;5158733;27;20057;-58
2023/01/02 07:51:58;;;;;;;4.43;1.20;;;7.70;99.90;;;;;;5158217;27;20051;-59
2023/01/02 07:54:24;;;;;;;5.93;1.00;;;8.10;99.90;;;;;;5155727;27;20075;-58
2023/01/02 07:56:51;;;;;;;3.10;1.00;;;7.50;99.90;;;;;;5137180;27;20039;-58
2023/01/02 07:59:16;;;;;;;6.10;1.08;;;8.30;99.90;;;;;;5137857;27;20039;-59
2023/01/02 08:01:42;;;;;;;5.95;1.10;;;7.50;99.90;;;;;;5137171;27;20498;-58
2023/01/02 08:04:08;;;;;;;4.65;1.63;;;7.50;99.90;;;;;;5137536;27;20138;-58
2023/01/02 08:06:34;;;;;;;3.97;0.93;;;8.10;99.90;;;;;;5137700;27;20046;-58
2023/01/02 08:08:59;;;;;;;2.92;1.00;;;7.90;99.90;;;;;;5136896;27;20051;-58
2023/01/02 08:11:25;;;;;;;4.70;1.38;;;7.90;99.90;;;;;;5137702;27;20047;-58
2023/01/02 08:13:51;;;;;;;4.60;1.30;;;8.10;99.90;;;;;;5135893;27;20081;-58
2023/01/02 08:16:19;;;;;;;7.22;1.40;;;8.30;99.90;;;;;;5137669;27;20102;-58
2023/01/02 08:18:45;;;;;;;6.40;1.33;;;7.90;99.90;;;;;;5137064;27;20046;-58
2023/01/02 08:21:11;;;;;;;3.58;1.20;;;7.40;99.90;;;;;;5118706;27;20603;-58
2023/01/02 08:23:37;;;;;;;3.70;1.00;;;8.20;99.90;;;;;;5119223;27;20047;-58
2023/01/02 08:26:06;;;;;;;2.10;0.73;;;7.50;99.90;;;;;;5136558;27;20057;-59
2023/01/02 08:28:32;;;;;;;3.97;1.20;;;8.30;99.90;;;;;;5137368;27;20035;-58
2023/01/02 08:30:59;;;;;;;1.83;0.85;;;8.00;99.90;;;;;;5136701;27;20050;-58
2023/01/02 08:33:25;;;;;;;3.38;1.20;;;8.00;99.90;;;;;;5118900;27;20047;-59
2023/01/02 08:35:51;;;;;;;2.92;1.05;;;8.40;99.90;;;;;;5136565;27;20053;-58
2023/01/02 08:38:17;;;;;;;3.60;0.95;;;8.30;99.90;;;;;;5136605;27;20054;-58
2023/01/02 08:40:43;;;;;;;5.05;1.20;;;7.60;99.90;;;;;;5137246;27;20047;-58
2023/01/02 08:43:09;;;;;;;3.20;0.90;;;7.60;99.90;;;;;;5135994;27;20082;-58
2023/01/02 08:45:35;;;;;;;1.65;0.90;;;8.20;99.90;;;;;;5137071;27;20043;-59
2023/01/02 08:48:01;;;;;;;4.40;1.10;;;7.60;99.90;;;;;;5136417;27;20633;-59
2023/01/02 08:50:27;;;;;;;4.63;1.40;;;7.50;99.90;;;;;;5136795;27;20047;-59
2023/01/02 08:52:52;;;;;;;3.38;1.20;;;7.60;99.90;;;;;;5136290;27;20043;-59
2023/01/02 08:55:18;;;;;;;4.57;1.40;;;8.30;99.90;;;;;;5137352;27;20114;-59
2023/01/02 08:57:44;;;;;;;3.45;1.10;;;8.30;99.90;;;;;;5157263;27;20054;-59
2023/01/02 09:00:10;;;;;;;4.57;1.55;;;8.10;99.90;;;;;;5156728;27;20462;-59
2023/01/02 09:02:36;;;;;;;5.43;1.30;;;7.70;99.90;;;;;;5157192;27;20057;-59
2023/01/02 09:05:02;;;;;;;2.38;1.08;;;7.70;99.90;;;;;;5156346;27;20070;-59
2023/01/02 09:07:31;;;;;;;5.30;1.08;;;7.70;99.90;;;;;;5156903;27;20122;-59
2023/01/02 09:09:57;;;;;;;4.50;1.30;;;8.30;99.90;;;;;;5155722;27;20061;-59
2023/01/02 09:12:23;;;;;;;4.22;1.20;;;7.60;99.90;;;;;;5137617;27;20054;-58
2023/01/02 09:14:48;;;;;;;4.60;1.17;;;7.80;99.90;;;;;;5155993;27;20046;-58
2023/01/02 09:17:14;;;;;;;2.83;1.40;;;7.70;99.90;;;;;;5155877;27;20053;-58
2023/01/02 09:19:41;;;;;;;4.93;1.25;;;7.70;99.90;;;;;;5137553;27;20054;-59
2023/01/02 09:22:08;;;;;;;4.55;1.17;;;8.30;99.90;;;;;;5155561;27;20054;-59
2023/01/02 09:24:34;;;;;;;2.85;1.00;;;8.40;99.90;;;;;;5137249;27;20046;-58
2023/01/02 09:26:59;;;;;;;4.40;1.40;;;8.10;99.90;;;;;;5136719;27;20079;-58
2023/01/02 09:29:25;;;;;;;3.88;1.17;;;7.80;99.90;;;;;;5156258;27;20050;-59
2023/01/02 09:31:51;;;;;;;4.80;1.50;;;7.80;99.90;;;;;;5137411;27;20417;-59
2023/01/02 09:34:17;;;;;;;5.53;1.23;;;8.10;99.90;;;;;;5155526;27;20047;-59
2023/01/02 09:36:42;;;;;;;5.43;1.48;;;8.40;99.90;;;;;;5156404;27;20599;-58
2023/01/02 09:39:08;;;;;;;5.70;2.10;;;7.90;99.90;;;;;;5154775;27;20031;-59
2023/01/02 09:41:37;;;;;;;3.78;1.38;;;8.00;99.90;;;;;;5155689;27;20078;-59
2023/01/02 09:44:35;;;;;;;5.35;1.70;;;8.00;99.90;;;;;;5154918;27;20053;-59
2023/01/02 09:47:09;;;;;;;5.13;1.92;;;8.10;99.90;;;;;;5155420;27;20055;-59
2023/01/02 09:49:46;;;;;;;6.00;1.85;;;8.00;99.90;;;;;;5136820;27;20126;-58
2023/01/02 09:52:18;;;;;;;4.45;1.73;;;8.00;99.90;;;;;;5155092;27;20043;-59
2023/01/02 09:54:43;;;;;;;7.30;2.35;;;8.00;99.90;;;;;;5133225;27;20039;-59
2023/01/02 09:57:27;;;;;;;8.32;2.03;;;8.20;99.90;;;;;;5134257;27;20050;-59
2023/01/02 10:00:22;;;;;;;4.65;1.85;;;8.40;99.90;;;;;;5134452;27;20077;-59
2023/01/02 10:03:18;;;;;;;6.95;1.60;;;8.30;99.90;;;;;;5134829;28;20112;-58
2023/01/02 10:05:44;;;;;;;6.45;2.10;;;8.40;99.90;;;;;;5134130;28;20118;-58
2023/01/02 10:08:35;;;;;;;4.05;1.35;;;7.90;99.90;;;;;;5134829;28;20523;-58
2023/01/02 10:11:08;;;;;;;5.23;1.70;;;8.10;99.90;;;;;;5135012;27;20476;-57
2023/01/02 10:13:43;;;;;;;;;;;8.20;99.90;;;;;;5145361;27;20043;-59
2023/01/02 10:16:17;;;;;;;3.22;1.10;;;8.00;99.90;;;;;;5150006;27;19919;-59
2023/01/02 10:18:47;;;;;;;3.05;1.08;;;8.10;99.90;;;;;;5102755;28;20280;-58
2023/01/02 10:21:17;;;;;;;3.78;1.10;;;8.60;99.90;;;;;;5138216;28;20448;-59
2023/01/02 10:23:51;;;;;;;3.05;0.95;;;8.10;99.90;;;;;;5137710;28;20116;-58
2023/01/02 10:26:19;;;;;;;3.45;1.13;;;8.50;99.90;;;;;;5136521;28;20099;-58
2023/01/02 10:28:53;;;;;;;4.78;1.10;;;8.10;99.90;;;;;;5138638;28;20035;-59
2023/01/02 10:31:42;;;;;;;5.55;0.95;;;8.10;99.90;;;;;;5137648;28;20047;-58
2023/01/02 10:34:16;;;;;;;3.00;1.10;;;8.30;99.90;;;;;;5138135;28;20035;-59
2023/01/02 10:36:43;;;;;;;3.28;0.90;;;8.10;99.90;;;;;;5139518;27;20047;-59
2023/01/02 10:39:20;;;;;;;5.63;1.42;;;8.40;99.90;;;;;;5141711;27;20051;-58
2023/01/02 10:41:49;;;;;;;3.47;1.00;;;8.40;99.90;;;;;;5142137;27;20039;-59
2023/01/02 10:44:26;;;;;;;4.85;2.38;;;8.20;99.90;;;;;;5142027;27;20042;-58
2023/01/02 10:46:53;;;;;;;3.92;1.17;;;8.20;99.90;;;;;;5141626;27;20032;-58
2023/01/02 10:49:20;;;;;;;4.30;1.50;;;8.10;99.90;;;;;;5142695;27;20043;-59
2023/01/02 10:52:12;;;;;;;4.20;1.50;;;8.50;99.90;;;;;;5123184;27;20047;-58
2023/01/02 10:54:55;;;;;;;4.80;1.50;;;8.30;99.90;;;;;;5147075;27;20078;-58
2023/01/02 10:57:36;;;;;;;6.15;2.13;;;8.40;99.90;;;;;;5161747;27;20042;-58
2023/01/02 11:00:04;;;;;;;4.85;1.52;;;8.20;99.90;;;;;;5161612;27;20047;-58
2023/01/02 11:02:36;;;;;;;5.63;1.70;;;8.20;99.90;;;;;;5162611;27;20062;-58
2023/01/02 11:05:04;;;;;;;4.60;1.38;;;8.40;99.90;;;;;;5161493;27;20043;-58
2023/01/02 11:07:38;;;;;;;4.85;1.48;;;8.30;99.90;;;;;;5162472;27;20046;-58
2023/01/02 11:10:19;;;;;;;4.80;1.77;;;8.40;99.90;;;;;;5133148;27;20046;-58
2023/01/02 11:12:46;;;;;;;7.22;1.58;;;8.30;99.90;;;;;;5133392;27;20074;-58
2023/01/02 11:15:13;;;;;;;6.78;1.73;;;8.70;99.90;;;;;;5152369;27;20470;-58
2023/01/02 11:17:42;;;;;;;4.85;1.50;;;8.40;99.90;;;;;;5149661;27;20031;-59
2023/01/02 11:20:37;;;;;;;5.85;1.52;;;8.30;99.90;;;;;;5130770;27;20545;-59
2023/01/02 11:23:04;;;;;;;4.18;1.48;;;8.60;99.90;;;;;;5132724;27;20541;-58
2023/01/02 11:25:41;;;;;;;4.90;1.52;;;8.40;99.90;;;;;;5150709;27;20038;-58
2023/01/02 11:28:19;;;;;;;5.25;1.70;;;8.50;99.90;;;;;;5151463;27;20490;-58
2023/01/02 11:30:59;;;;;;;5.20;1.52;;;8.20;99.90;;;;;;5143378;27;20513;-59
2023/01/02 11:33:30;;;;;;;4.40;1.50;;;8.40;99.90;;;;;;5141474;27;20035;-58
2023/01/02 11:36:03;;;;;;;6.30;1.52;;;8.50;99.90;;;;;;5141031;27;20072;-58
2023/01/02 11:38:48;;;;;;;4.50;1.42;;;8.60;99.90;;;;;;5140971;27;20043;-58
2023/01/02 11:43:47;;;;;;;6.13;1.40;;;8.60;99.90;;;;;;5122869;27;20107;-59
2023/01/02 11:44:26;;;;;;;8.85;1.80;;;8.80;99.90;;;;;;5140786;27;20071;-58
2023/01/02 11:46:53;;;;;;;5.78;1.77;;;8.80;99.90;;;;;;5140815;27;20099;-58
2023/01/02 11:49:22;;;;;;;7.05;1.67;;;8.80;99.90;;;;;;5141432;27;20074;-59
2023/01/02 11:51:53;;;;;;;4.78;1.77;;;8.70;99.90;;;;;;5140746;27;20043;-58
2023/01/02 11:54:24;;;;;;;6.38;1.27;;;8.80;99.90;;;;;;5143093;27;20062;-59
2023/01/02 11:56:51;;;;;;;6.15;1.60;;;8.90;99.90;;;;;;5125381;27;20042;-58
2023/01/02 11:59:26;;;;;;;4.65;1.42;;;8.70;99.90;;;;;;5162033;27;20034;-58
2023/01/02 12:02:11;;;;;;;5.18;1.20;;;8.80;99.90;;;;;;5143268;27;20134;-59
2023/01/02 12:04:37;;;;;;;4.85;1.70;;;8.70;99.90;;;;;;5160529;27;20079;-59
2023/01/02 12:07:29;;;;;;;6.53;1.58;;;9.00;99.90;;;;;;5132046;27;20043;-59
2023/01/02 12:10:17;;;;;;;6.45;1.35;;;8.80;99.90;;;;;;5138439;27;20045;-56
2023/01/02 12:13:35;;;;;;;3.38;1.02;;;8.70;99.90;;;;;;5120563;27;20551;-58
2023/01/02 12:16:18;;;;;;;12.88;1.38;;;8.70;99.90;;;;;;5056269;28;20108;-58
2023/01/02 12:18:47;;;;;;;10.77;1.60;;;8.70;99.90;;;;;;5055156;28;20433;-58
2023/01/02 12:21:23;;;;;;;5.93;1.30;;;8.60;99.90;;;;;;5113397;27;20047;-58
2023/01/02 12:24:12;;;;;;;6.57;1.45;;;8.60;99.90;;;;;;5120719;27;20106;-59
2023/01/02 12:26:47;;;;;;;6.82;1.60;;;8.70;99.90;;;;;;5138938;27;20057;-58
2023/01/02 12:29:25;;;;;;;5.55;1.20;;;8.90;99.90;;;;;;5139620;27;20054;-58
2023/01/02 12:31:57;;;;;;;5.15;1.23;;;8.70;99.90;;;;;;5138492;27;20039;-57
2023/01/02 12:34:41;;;;;;;6.78;1.00;;;8.70;99.90;;;;;;5119944;27;20078;-59
2023/01/02 12:37:37;;;;;;;6.35;1.35;;;8.80;99.90;;;;;;5139122;27;20039;-59
2023/01/02 12:40:14;;;;;;;8.13;1.55;;;8.80;99.90;;;;;;5138751;27;20114;-58
2023/01/02 12:42:43;;;;;;;7.50;1.73;;;8.90;99.90;;;;;;5138214;27;20103;-58
2023/01/02 12:45:31;;;;;;;6.57;1.42;;;8.90;99.90;;;;;;5120418;27;20047;-58
2023/01/02 12:48:02;;;;;;;7.10;1.67;;;8.90;99.90;;;;;;5138019;27;20573;-58
2023/01/02 12:50:28;;;;;;;8.70;1.52;;;9.00;99.90;;;;;;5138912;27;20497;-58
2023/01/02 12:53:11;;;;;;;5.32;1.27;;;8.90;99.90;;;;;;5138361;27;20043;-58
2023/01/02 12:55:42;;;;;;;6.88;1.23;;;8.80;99.90;;;;;;5138205;27;20633;-58
2023/01/02 12:58:22;;;;;;;5.50;1.57;;;8.80;99.90;;;;;;5138785;27;20043;-58
2023/01/02 13:01:18;;;;;;;8.95;1.67;;;8.90;99.90;;;;;;5137293;27;20051;-58
2023/01/02 13:03:46;;;;;;;8.20;1.60;;;9.00;99.90;;;;;;5138095;27;20065;-58
2023/01/02 13:06:33;;;;;;;15.25;2.08;;;8.90;99.90;;;;;;5138686;27;20043;-58
2023/01/02 13:09:05;;;;;;;5.47;1.20;;;8.90;99.90;;;;;;5138553;27;20043;-58